Terminal Aerodrome Forecast
Issued by NWS Melbourne, FL

Home | Current Version | Previous Version | Text Only | Print | Product List | Glossary On
Versions: 1 2 3 4 5 6 7 8 9 10 11 12 13 14 15 16 17
000
FTUS42 KMLB 171120
TAFVRB
TAF
KVRB 171120Z 1712/1812 VRB02KT P6SM FEW030
     FM171300 23004KT P6SM FEW030 SCT250
     FM171500 11010KT P6SM SCT030 BKN100
     FM172200 17006KT P6SM SCT030 BKN120
     FM180000 VRB04KT P6SM FEW035 SCT150 BKN250=

USA.gov is the U.S. government's official web portal to all federal, state and local government web resources and services.